createdAt,value
2022-09-09T00:02:22.328Z,27.45
2022-09-09T00:04:57.467Z,15.35
2022-09-09T00:07:27.516Z,26.65
2022-09-09T00:10:01.674Z,40.30
2022-09-09T00:12:36.684Z,38.00
2022-09-09T00:15:07.755Z,13.23
2022-09-09T00:17:40.901Z,16.35
2022-09-09T00:20:13.934Z,23.92
2022-09-09T00:22:38.566Z,29.45
2022-09-09T00:25:12.652Z,31.02
2022-09-09T00:27:42.728Z,25.98
2022-09-09T00:30:20.817Z,28.52
2022-09-09T00:32:45.684Z,48.33
2022-09-09T00:35:20.290Z,36.70
2022-09-09T00:37:44.555Z,20.75
2022-09-09T00:40:24.623Z,13.40
2022-09-09T00:42:48.261Z,15.88
2022-09-09T00:45:40.280Z,21.20
2022-09-09T00:48:10.639Z,37.97
2022-09-09T00:50:48.268Z,26.08
2022-09-09T00:53:30.989Z,19.88
2022-09-09T00:56:06.255Z,27.25
2022-09-09T00:58:29.909Z,45.53
2022-09-09T01:01:01.147Z,21.48
2022-09-09T01:03:35.757Z,27.48
2022-09-09T01:06:19.031Z,32.63
2022-09-09T01:09:05.905Z,33.67
2022-09-09T01:11:39.227Z,22.15
2022-09-09T01:14:14.344Z,16.40
2022-09-09T01:16:40.481Z,21.90
2022-09-09T01:19:05.384Z,39.85
2022-09-09T01:21:42.286Z,24.38
2022-09-09T01:24:29.895Z,24.83
2022-09-09T01:27:08.042Z,14.57
2022-09-09T01:29:32.084Z,24.60
2022-09-09T01:31:58.269Z,15.02
2022-09-09T01:34:23.707Z,30.08
2022-09-09T01:36:54.027Z,29.42
2022-09-09T01:39:17.751Z,37.50
2022-09-09T01:41:42.712Z,13.23
2022-09-09T01:44:12.233Z,11.48
2022-09-09T01:46:38.030Z,33.42
2022-09-09T01:49:08.054Z,25.40
2022-09-09T01:51:32.091Z,28.83
2022-09-09T01:53:59.262Z,16.98
2022-09-09T01:56:38.412Z,27.13
2022-09-09T01:59:25.367Z,18.52
2022-09-09T02:02:11.084Z,17.13
2022-09-09T02:04:44.459Z,19.92
2022-09-09T02:07:30.521Z,37.63
2022-09-09T02:10:03.713Z,12.73
2022-09-09T02:12:29.980Z,36.65
2022-09-09T02:15:03.471Z,12.32
2022-09-09T02:17:38.605Z,35.58
2022-09-09T02:20:11.123Z,19.50
2022-09-09T02:22:51.762Z,18.48
2022-09-09T02:25:20.787Z,17.90
2022-09-09T02:27:47.902Z,30.10
2022-09-09T02:30:14.824Z,38.25
2022-09-09T02:32:46.175Z,20.30
2022-09-09T02:35:16.512Z,16.63
2022-09-09T02:37:43.581Z,35.90
2022-09-09T02:40:11.407Z,26.38
2022-09-09T02:42:42.221Z,27.85
2022-09-09T02:45:07.296Z,39.03
2022-09-09T02:47:38.308Z,25.85
2022-09-09T02:50:15.744Z,19.67
2022-09-09T02:52:55.254Z,33.97
2022-09-09T02:55:27.314Z,15.80
2022-09-09T02:57:54.946Z,36.95
2022-09-09T03:00:25.350Z,23.17
2022-09-09T03:02:50.739Z,22.27
2022-09-09T03:05:14.455Z,48.38
2022-09-09T03:07:38.232Z,30.05
2022-09-09T03:10:01.809Z,37.92
2022-09-09T03:12:25.375Z,21.60
2022-09-09T03:14:49.067Z,17.08
2022-09-09T03:17:12.939Z,26.88
2022-09-09T03:19:45.081Z,24.42
2022-09-09T03:22:12.264Z,13.90
2022-09-09T03:24:38.721Z,25.95
2022-09-09T03:27:02.608Z,33.35
2022-09-09T03:29:26.970Z,35.83
2022-09-09T03:31:54.020Z,27.83
2022-09-09T03:34:18.122Z,14.60
2022-09-09T03:36:43.791Z,26.55
2022-09-09T03:39:07.471Z,27.88
2022-09-09T03:41:33.067Z,15.38
2022-09-09T03:43:58.862Z,37.88
2022-09-09T03:46:27.874Z,27.30
2022-09-09T03:48:53.187Z,37.88
2022-09-09T03:51:17.915Z,26.48
2022-09-09T03:53:42.851Z,15.43
2022-09-09T03:56:08.038Z,26.40
2022-09-09T03:58:31.671Z,37.78
2022-09-09T04:01:05.864Z,22.52
2022-09-09T04:03:30.763Z,25.13
2022-09-09T04:05:54.592Z,27.90
2022-09-09T04:08:19.575Z,18.88
2022-09-09T04:10:46.991Z,15.73
2022-09-09T04:13:10.596Z,17.55
2022-09-09T04:15:36.591Z,16.42
2022-09-09T04:18:00.583Z,22.65
2022-09-09T04:20:24.495Z,22.92
2022-09-09T04:22:48.382Z,22.60
2022-09-09T04:25:12.015Z,14.63
2022-09-09T04:27:37.022Z,11.73
2022-09-09T04:30:00.821Z,20.13
2022-09-09T04:32:28.569Z,24.70
2022-09-09T04:34:52.142Z,21.58
2022-09-09T04:37:16.330Z,29.50
2022-09-09T04:39:40.282Z,23.67
2022-09-09T04:42:04.275Z,13.25
2022-09-09T04:44:29.578Z,30.45
2022-09-09T04:46:53.622Z,24.98
2022-09-09T04:49:17.975Z,13.52
2022-09-09T04:51:41.527Z,33.13
2022-09-09T04:54:06.120Z,20.40
2022-09-09T04:56:30.045Z,26.25
2022-09-09T04:58:56.445Z,28.70
2022-09-09T05:01:26.747Z,14.25
2022-09-09T05:03:55.407Z,18.92
2022-09-09T05:06:23.679Z,22.30
2022-09-09T05:08:51.924Z,17.48
2022-09-09T05:11:21.539Z,22.35
2022-09-09T05:13:45.475Z,18.15
2022-09-09T05:16:12.316Z,26.45
2022-09-09T05:18:38.031Z,20.83
2022-09-09T05:21:02.235Z,22.35
2022-09-09T05:23:26.711Z,20.63
2022-09-09T05:25:58.702Z,25.17
2022-09-09T05:28:23.098Z,20.15
2022-09-09T05:30:46.707Z,20.27
2022-09-09T05:33:10.423Z,20.00
2022-09-09T05:35:36.099Z,19.67
2022-09-09T05:38:02.918Z,19.17
2022-09-09T05:40:26.565Z,18.48
2022-09-09T05:42:50.387Z,24.70
2022-09-09T05:45:14.187Z,26.95
2022-09-09T05:47:38.255Z,21.95
2022-09-09T05:50:04.478Z,20.55
2022-09-09T05:52:29.791Z,19.50
2022-09-09T05:54:56.054Z,17.48
2022-09-09T05:57:20.489Z,18.02
2022-09-09T05:59:45.009Z,13.95
2022-09-09T06:02:11.104Z,17.67
2022-09-09T06:04:34.962Z,12.57
2022-09-09T06:07:00.012Z,14.15
2022-09-09T06:09:25.040Z,11.93
2022-09-09T06:11:48.717Z,10.40
2022-09-09T06:14:12.884Z,12.38
2022-09-09T06:16:38.909Z,14.25
2022-09-09T06:19:07.940Z,13.27
2022-09-09T06:21:37.116Z,11.98
2022-09-09T06:24:03.090Z,11.05
2022-09-09T06:26:29.908Z,10.70
2022-09-09T06:28:55.815Z,10.52
2022-09-09T06:31:24.125Z,10.63
2022-09-09T06:33:52.899Z,14.00
2022-09-09T06:36:20.251Z,9.15
2022-09-09T06:38:44.198Z,8.77
2022-09-09T06:41:11.839Z,9.48
2022-09-09T06:43:37.835Z,9.02
2022-09-09T06:46:04.791Z,6.60
2022-09-09T06:48:30.676Z,10.00
2022-09-09T06:51:02.871Z,7.97
2022-09-09T06:53:28.218Z,7.35
2022-09-09T06:55:52.101Z,4.03
2022-09-09T06:58:15.779Z,5.95
2022-09-09T07:00:40.792Z,6.32
2022-09-09T07:03:04.538Z,4.82
2022-09-09T07:05:28.108Z,6.47
2022-09-09T07:07:52.976Z,4.85
2022-09-09T07:10:17.761Z,4.88
2022-09-09T07:12:42.329Z,5.95
2022-09-09T07:15:09.362Z,6.20
2022-09-09T07:17:34.391Z,5.60
2022-09-09T07:19:58.327Z,5.70
2022-09-09T07:22:23.617Z,6.93
2022-09-09T07:24:47.130Z,5.65
2022-09-09T07:27:12.172Z,5.43
2022-09-09T07:29:35.885Z,4.90
2022-09-09T07:32:00.414Z,6.38
2022-09-09T07:34:30.998Z,4.15
2022-09-09T07:36:55.272Z,6.53
2022-09-09T07:39:19.407Z,8.77
2022-09-09T07:41:49.496Z,7.32
2022-09-09T07:44:19.390Z,7.70
2022-09-09T07:46:47.155Z,6.13
2022-09-09T07:49:15.142Z,6.60
2022-09-09T07:51:43.705Z,8.02
2022-09-09T07:54:10.641Z,5.25
2022-09-09T07:56:36.518Z,7.65
2022-09-09T07:59:02.189Z,5.68
2022-09-09T08:01:28.749Z,7.07
2022-09-09T08:03:59.870Z,5.35
2022-09-09T08:06:25.979Z,6.10
2022-09-09T08:08:52.905Z,5.93
2022-09-09T08:11:17.666Z,6.22
2022-09-09T08:13:41.827Z,6.93
2022-09-09T08:16:12.614Z,4.85
2022-09-09T08:18:38.766Z,4.80
2022-09-09T08:21:09.463Z,8.20
2022-09-09T08:23:33.838Z,6.78
2022-09-09T08:26:07.070Z,5.50
2022-09-09T08:28:32.075Z,4.78
2022-09-09T08:30:55.679Z,5.00
2022-09-09T08:33:20.155Z,3.97
2022-09-09T08:35:53.855Z,9.88
2022-09-09T08:38:17.753Z,5.07
2022-09-09T08:40:50.407Z,5.45
2022-09-09T08:43:18.546Z,3.88
2022-09-09T08:45:57.546Z,7.82
2022-09-09T08:48:42.750Z,5.57
2022-09-09T08:51:08.310Z,5.75
2022-09-09T08:53:42.970Z,4.75
2022-09-09T08:56:15.114Z,5.63
2022-09-09T08:59:04.139Z,5.65
2022-09-09T09:01:47.476Z,7.65
2022-09-09T09:04:36.250Z,6.43
2022-09-09T09:07:14.995Z,5.75
2022-09-09T09:09:50.575Z,6.00
2022-09-09T09:12:20.095Z,4.40
2022-09-09T09:14:48.486Z,5.57
2022-09-09T09:17:16.133Z,4.32
2022-09-09T09:19:42.975Z,4.00
2022-09-09T09:22:19.067Z,6.50
2022-09-09T09:24:53.527Z,4.50
2022-09-09T09:27:33.177Z,8.43
2022-09-09T09:30:23.861Z,3.42
2022-09-09T09:32:54.749Z,4.70
2022-09-09T09:35:19.736Z,5.90
2022-09-09T09:40:31.876Z,4.75
2022-09-09T09:42:59.547Z,5.25
2022-09-09T09:45:34.154Z,4.03
2022-09-09T09:48:07.483Z,3.70
2022-09-09T09:50:35.629Z,5.63
2022-09-09T09:53:02.006Z,3.42
2022-09-09T09:55:31.119Z,3.78
2022-09-09T09:57:55.353Z,3.63
2022-09-09T10:00:23.632Z,4.15
2022-09-09T10:02:57.385Z,4.20
2022-09-09T10:05:29.076Z,3.83
2022-09-09T10:08:05.906Z,5.72
2022-09-09T10:10:47.835Z,3.72
2022-09-09T10:13:19.504Z,5.00
2022-09-09T10:15:53.858Z,3.85
2022-09-09T10:18:40.043Z,3.72
2022-09-09T10:21:16.699Z,4.35
2022-09-09T10:23:57.055Z,4.22
2022-09-09T10:26:37.410Z,3.72
2022-09-09T10:29:29.524Z,4.95
2022-09-09T10:32:08.396Z,3.33
2022-09-09T10:34:57.083Z,5.72
2022-09-09T10:37:37.874Z,4.68
2022-09-09T10:40:11.116Z,4.65
2022-09-09T10:42:35.690Z,2.97
2022-09-09T10:45:13.349Z,4.18
2022-09-09T10:48:10.530Z,5.45
2022-09-09T10:51:03.973Z,4.53
2022-09-09T10:53:45.618Z,3.10
2022-09-09T10:56:15.046Z,3.50
2022-09-09T10:58:45.011Z,3.80
2022-09-09T11:01:18.349Z,3.97
2022-09-09T11:03:43.246Z,4.97
2022-09-09T11:06:15.116Z,2.03
2022-09-09T11:08:41.567Z,3.67
2022-09-09T11:11:10.553Z,3.47
2022-09-09T11:13:44.276Z,2.45
2022-09-09T11:16:21.924Z,2.35
2022-09-09T11:18:47.528Z,3.88
2022-09-09T11:21:24.516Z,2.92
2022-09-09T11:23:53.588Z,3.53
2022-09-09T11:26:23.897Z,3.90
2022-09-09T11:29:05.045Z,3.13
2022-09-09T11:31:47.656Z,3.03
2022-09-09T11:34:30.081Z,3.33
2022-09-09T11:37:21.742Z,3.17
2022-09-09T11:40:11.357Z,4.15
2022-09-09T11:42:35.167Z,2.95
2022-09-09T11:44:59.188Z,2.45
2022-09-09T11:47:30.532Z,3.50
2022-09-09T11:49:55.177Z,4.72
2022-09-09T11:52:27.723Z,2.83
2022-09-09T11:54:52.310Z,4.70
2022-09-09T11:57:29.593Z,1.75
2022-09-09T11:59:54.300Z,3.25
2022-09-09T12:02:25.356Z,3.45
2022-09-09T12:04:57.602Z,2.45
2022-09-09T12:07:37.015Z,3.90
2022-09-09T12:10:04.824Z,3.60
2022-09-09T12:12:35.246Z,2.58
2022-09-09T12:15:26.979Z,2.40
2022-09-09T12:17:52.785Z,2.28
2022-09-09T12:20:19.430Z,3.97
2022-09-09T12:22:59.360Z,2.92
2022-09-09T12:25:33.867Z,5.88
2022-09-09T12:28:08.848Z,5.65
2022-09-09T12:30:42.544Z,2.38
2022-09-09T12:33:14.961Z,3.03
2022-09-09T12:35:39.628Z,3.38
2022-09-09T12:38:08.025Z,1.95
2022-09-09T12:40:36.275Z,4.15
2022-09-09T12:43:02.207Z,2.22
2022-09-09T12:45:28.565Z,4.30
2022-09-09T12:47:57.247Z,3.65
2022-09-09T12:50:26.623Z,2.55
2022-09-09T12:52:52.248Z,2.90
2022-09-09T12:55:26.112Z,2.75
2022-09-09T12:57:51.850Z,2.72
2022-09-09T13:00:20.235Z,1.33
2022-09-09T13:02:53.220Z,5.00
2022-09-09T13:05:21.656Z,3.40
2022-09-09T13:07:45.599Z,3.08
2022-09-09T13:10:18.111Z,5.28
2022-09-09T13:12:50.759Z,2.80
2022-09-09T13:15:23.704Z,6.13
2022-09-09T13:17:54.790Z,4.57
2022-09-09T13:20:20.471Z,5.25
2022-09-09T13:22:44.059Z,5.55
2022-09-09T13:25:20.525Z,5.00
2022-09-09T13:27:58.446Z,3.13
2022-09-09T13:30:26.302Z,4.30
2022-09-09T13:32:49.888Z,2.42
2022-09-09T13:35:26.579Z,2.42
2022-09-09T13:37:50.186Z,4.15
2022-09-09T13:40:22.654Z,2.97
2022-09-09T13:42:47.746Z,4.18
2022-09-09T13:45:22.405Z,5.78
2022-09-09T13:47:46.294Z,4.22
2022-09-09T13:50:22.281Z,2.80
2022-09-09T13:52:46.419Z,3.10
2022-09-09T13:55:11.694Z,3.20
2022-09-09T13:57:35.252Z,3.97
2022-09-09T14:00:05.029Z,2.88
2022-09-09T14:02:32.292Z,4.63
2022-09-09T14:04:56.599Z,3.33
2022-09-09T14:07:21.489Z,2.00
2022-09-09T14:09:45.312Z,4.95
2022-09-09T14:12:11.454Z,4.40
2022-09-09T14:14:35.060Z,3.85
2022-09-09T14:16:58.819Z,4.03
2022-09-09T14:19:23.731Z,4.60
2022-09-09T14:21:47.339Z,2.78
2022-09-09T14:24:10.850Z,3.08
2022-09-09T14:26:34.481Z,2.42
2022-09-09T14:28:58.588Z,2.97
2022-09-09T14:31:22.736Z,3.83
2022-09-09T14:33:46.671Z,3.47
2022-09-09T14:36:11.874Z,5.57
2022-09-09T14:38:40.671Z,3.72
2022-09-09T14:41:04.859Z,4.30
2022-09-09T14:43:28.906Z,3.58
2022-09-09T14:45:52.547Z,6.40
2022-09-09T14:48:16.686Z,2.65
2022-09-09T14:50:41.571Z,3.00
2022-09-09T14:53:06.469Z,5.45
2022-09-09T14:55:30.523Z,2.72
2022-09-09T14:57:54.172Z,3.75
2022-09-09T15:00:18.125Z,4.72
2022-09-09T15:02:42.070Z,3.67
2022-09-09T15:05:06.375Z,2.17
2022-09-09T15:07:30.323Z,6.30
2022-09-09T15:09:55.403Z,3.67
2022-09-09T15:12:20.173Z,2.33
2022-09-09T15:14:43.808Z,4.55
2022-09-09T15:17:07.359Z,4.75
2022-09-09T15:19:30.934Z,2.58
2022-09-09T15:21:55.441Z,2.47
2022-09-09T15:24:19.047Z,3.05
2022-09-09T15:26:44.077Z,3.85
2022-09-09T15:29:08.479Z,3.55
2022-09-09T15:31:33.718Z,4.00
2022-09-09T15:34:01.786Z,4.20
2022-09-09T15:36:28.035Z,3.00
2022-09-09T15:38:52.772Z,2.63
2022-09-09T15:41:17.859Z,2.15
2022-09-09T15:43:47.710Z,2.78
2022-09-09T15:46:28.927Z,4.70
2022-09-09T15:48:54.369Z,2.85
2022-09-09T15:51:41.033Z,6.65
2022-09-09T15:54:02.255Z,2.88
2022-09-09T15:56:26.683Z,3.13
2022-09-09T15:58:53.014Z,5.38
2022-09-09T16:01:17.826Z,4.03
2022-09-09T16:03:45.660Z,5.18
2022-09-09T16:06:09.727Z,2.03
2022-09-09T16:08:35.222Z,3.38
2022-09-09T16:10:58.814Z,2.90
2022-09-09T16:13:22.419Z,3.97
2022-09-09T16:15:47.462Z,5.60
2022-09-09T16:18:11.042Z,2.08
2022-09-09T16:20:34.619Z,2.85
2022-09-09T16:22:58.374Z,3.55
2022-09-09T16:25:22.022Z,5.18
2022-09-09T16:27:45.586Z,2.53
2022-09-09T16:30:10.843Z,2.97
2022-09-09T16:32:36.381Z,4.55
2022-09-09T16:35:00.011Z,3.28
2022-09-09T16:37:23.646Z,2.78
2022-09-09T16:39:47.331Z,7.20
2022-09-09T16:42:11.674Z,4.38
2022-09-09T16:44:35.205Z,5.70
2022-09-09T16:47:01.011Z,5.20
2022-09-09T16:49:26.070Z,6.32
2022-09-09T16:51:54.159Z,9.10
2022-09-09T16:54:19.393Z,6.47
2022-09-09T16:56:45.282Z,4.93
2022-09-09T16:59:11.394Z,6.22
2022-09-09T17:01:38.447Z,4.65
2022-09-09T17:04:06.058Z,13.32
2022-09-09T17:06:32.483Z,5.22
2022-09-09T17:08:57.667Z,3.38
2022-09-09T17:11:21.764Z,6.72
2022-09-09T17:13:45.987Z,5.63
2022-09-09T17:16:10.579Z,6.45
2022-09-09T17:18:34.438Z,9.43
2022-09-09T17:20:58.194Z,6.28
2022-09-09T17:23:23.270Z,6.70
2022-09-09T17:25:47.089Z,6.18
2022-09-09T17:28:10.777Z,9.00
2022-09-09T17:30:37.671Z,8.63
2022-09-09T17:33:01.185Z,7.13
2022-09-09T17:35:24.828Z,5.80
2022-09-09T17:37:48.375Z,5.30
2022-09-09T17:40:14.740Z,5.07
2022-09-09T17:42:38.359Z,4.70
2022-09-09T17:45:02.204Z,5.55
2022-09-09T17:47:26.681Z,5.85
2022-09-09T17:49:50.288Z,5.90
2022-09-09T17:52:13.887Z,4.95
2022-09-09T17:54:37.789Z,7.50
2022-09-09T17:57:02.782Z,6.45
2022-09-09T17:59:26.584Z,4.40
2022-09-09T18:01:51.955Z,5.82
2022-09-09T18:04:18.361Z,3.20
2022-09-09T18:06:44.943Z,6.25
2022-09-09T18:09:13.246Z,5.57
2022-09-09T18:11:42.688Z,7.90
2022-09-09T18:14:07.683Z,6.13
2022-09-09T18:16:36.443Z,4.45
2022-09-09T18:19:00.855Z,11.95
2022-09-09T18:21:25.927Z,8.48
2022-09-09T18:23:52.239Z,7.53
2022-09-09T18:26:19.698Z,10.85
2022-09-09T18:28:44.959Z,8.77
2022-09-09T18:31:12.390Z,8.95
2022-09-09T18:33:38.370Z,6.75
2022-09-09T18:36:08.058Z,8.20
2022-09-09T18:38:35.685Z,7.70
2022-09-09T18:40:59.313Z,7.85
2022-09-09T18:43:23.284Z,6.32
2022-09-09T18:45:46.811Z,6.00
2022-09-09T18:48:12.763Z,7.05
2022-09-09T18:50:36.326Z,8.82
2022-09-09T18:52:59.953Z,7.90
2022-09-09T18:55:23.551Z,8.18
2022-09-09T18:57:48.339Z,7.95
2022-09-09T19:00:13.365Z,5.55
2022-09-09T19:02:36.979Z,7.95
2022-09-09T19:05:02.983Z,8.60
2022-09-09T19:07:26.593Z,8.07
2022-09-09T19:09:50.603Z,7.53
2022-09-09T19:12:14.240Z,6.15
2022-09-09T19:14:38.036Z,6.85
2022-09-09T19:17:01.660Z,7.55
2022-09-09T19:19:28.542Z,7.68
2022-09-09T19:21:55.263Z,7.57
2022-09-09T19:24:21.534Z,5.93
2022-09-09T19:26:50.416Z,5.15
2022-09-09T19:29:17.352Z,5.30
2022-09-09T19:31:48.859Z,4.78
2022-09-09T19:34:24.928Z,4.82
2022-09-09T19:36:48.890Z,5.65
2022-09-09T19:39:15.239Z,3.03
2022-09-09T19:41:39.103Z,4.60
2022-09-09T19:44:06.051Z,5.07
2022-09-09T19:46:31.365Z,6.00
2022-09-09T19:48:55.020Z,5.18
2022-09-09T19:51:22.055Z,3.38
2022-09-09T19:53:48.478Z,4.53
2022-09-09T19:56:14.510Z,3.63
2022-09-09T19:58:40.271Z,2.70
2022-09-09T20:01:10.602Z,4.75
2022-09-09T20:03:34.395Z,4.13
2022-09-09T20:05:58.150Z,6.43
2022-09-09T20:08:21.855Z,5.05
2022-09-09T20:10:53.375Z,2.38
2022-09-09T20:13:18.381Z,4.32
2022-09-09T20:15:42.032Z,6.50
2022-09-09T20:18:06.247Z,8.25
2022-09-09T20:20:30.272Z,8.23
2022-09-09T20:22:55.158Z,6.45
2022-09-09T20:25:18.717Z,6.05
2022-09-09T20:27:42.805Z,3.25
2022-09-09T20:30:09.982Z,4.68
2022-09-09T20:32:33.828Z,3.55
2022-09-09T20:34:58.092Z,2.90
2022-09-09T20:37:21.751Z,3.50
2022-09-09T20:39:46.436Z,3.33
2022-09-09T20:42:10.124Z,2.70
2022-09-09T20:44:33.800Z,4.60
2022-09-09T20:47:02.770Z,2.58
2022-09-09T20:49:26.343Z,3.58
2022-09-09T20:51:50.840Z,2.65
2022-09-09T20:54:17.575Z,3.45
2022-09-09T20:56:44.520Z,4.68
2022-09-09T20:59:10.295Z,5.32
2022-09-09T21:01:34.259Z,3.88
2022-09-09T21:04:00.173Z,3.47
2022-09-09T21:06:24.116Z,4.80
2022-09-09T21:08:48.082Z,5.40
2022-09-09T21:11:11.863Z,4.20
2022-09-09T21:13:37.451Z,3.55
2022-09-09T21:16:01.091Z,4.65
2022-09-09T21:18:24.869Z,6.07
2022-09-09T21:20:50.656Z,5.47
2022-09-09T21:23:16.143Z,5.30
2022-09-09T21:25:39.755Z,3.45
2022-09-09T21:28:04.010Z,6.55
2022-09-09T21:30:37.746Z,4.82
2022-09-09T21:33:04.126Z,2.58
2022-09-09T21:35:27.798Z,4.22
2022-09-09T21:37:52.875Z,3.22
2022-09-09T21:40:16.517Z,3.60
2022-09-09T21:42:40.218Z,6.00
2022-09-09T21:45:03.768Z,4.63
2022-09-09T21:47:27.322Z,3.95
2022-09-09T21:49:51.050Z,4.60
2022-09-09T21:52:15.722Z,3.53
2022-09-09T21:54:44.376Z,4.72
2022-09-09T21:57:07.939Z,3.92
2022-09-09T21:59:32.408Z,3.97
2022-09-09T22:01:56.111Z,4.32
2022-09-09T22:04:19.717Z,7.40
2022-09-09T22:06:43.285Z,3.88
2022-09-09T22:09:06.799Z,5.25
2022-09-09T22:11:31.814Z,3.13
2022-09-09T22:13:56.014Z,2.90
2022-09-09T22:16:22.170Z,3.30
2022-09-09T22:18:45.905Z,4.10
2022-09-09T22:21:11.784Z,7.35
2022-09-09T22:23:36.501Z,4.78
2022-09-09T22:26:00.415Z,2.33
2022-09-09T22:28:25.300Z,4.18
2022-09-09T22:30:48.927Z,2.75
2022-09-09T22:33:12.498Z,5.75
2022-09-09T22:35:42.406Z,4.57
2022-09-09T22:38:05.938Z,3.78
2022-09-09T22:40:29.978Z,3.47
2022-09-09T22:42:54.159Z,5.28
2022-09-09T22:45:19.926Z,2.92
2022-09-09T22:47:43.458Z,3.20
2022-09-09T22:50:08.657Z,8.77
2022-09-09T22:52:32.319Z,4.80
2022-09-09T22:54:56.320Z,5.63
2022-09-09T22:57:19.935Z,9.65
2022-09-09T22:59:43.479Z,4.57
2022-09-09T23:02:09.928Z,4.15
2022-09-09T23:04:33.438Z,4.25
2022-09-09T23:06:57.095Z,3.10
2022-09-09T23:09:20.789Z,9.82
2022-09-09T23:11:46.887Z,5.53
2022-09-09T23:14:12.896Z,6.43
2022-09-09T23:16:39.872Z,7.47
2022-09-09T23:19:04.905Z,3.13
2022-09-09T23:21:30.701Z,4.13
2022-09-09T23:23:55.571Z,4.63
2022-09-09T23:26:20.287Z,3.15
2022-09-09T23:28:43.843Z,4.53
2022-09-09T23:31:10.864Z,5.13
2022-09-09T23:33:36.723Z,3.08
2022-09-09T23:36:03.931Z,4.35
2022-09-09T23:38:28.405Z,4.28
2022-09-09T23:40:51.919Z,4.20
2022-09-09T23:43:15.440Z,6.25
2022-09-09T23:45:38.962Z,4.68
2022-09-09T23:48:03.362Z,6.60
2022-09-09T23:50:27.082Z,5.80
2022-09-09T23:52:52.345Z,7.78
2022-09-09T23:55:16.099Z,6.30
2022-09-09T23:57:39.631Z,5.07
